createdAt,value
2024-04-09T00:01:23.827Z,21.20
2024-04-09T00:06:29.976Z,21.15
2024-04-09T00:11:37.279Z,21.10
2024-04-09T00:16:46.091Z,21.03
2024-04-09T00:21:51.551Z,20.97
2024-04-09T00:26:56.912Z,20.91
2024-04-09T00:32:05.044Z,20.87
2024-04-09T00:37:10.063Z,20.83
2024-04-09T00:42:15.246Z,20.78
2024-04-09T00:47:23.812Z,20.71
2024-04-09T00:52:29.634Z,20.67
2024-04-09T00:57:35.050Z,20.64
2024-04-09T01:02:43.146Z,20.59
2024-04-09T01:07:49.781Z,20.54
2024-04-09T01:12:54.858Z,20.49
2024-04-09T01:18:02.999Z,20.40
2024-04-09T01:23:10.852Z,20.33
2024-04-09T01:28:16.228Z,20.25
2024-04-09T01:33:21.363Z,20.17
2024-04-09T01:38:29.116Z,20.12
2024-04-09T01:43:34.335Z,20.03
2024-04-09T01:48:39.607Z,19.94
2024-04-09T01:53:50.949Z,19.90
2024-04-09T01:58:56.314Z,19.78
2024-04-09T02:04:05.644Z,19.73
2024-04-09T02:09:14.002Z,19.67
2024-04-09T02:14:19.172Z,19.60
2024-04-09T02:19:25.400Z,19.53
2024-04-09T02:24:33.513Z,19.51
2024-04-09T02:29:38.675Z,19.46
2024-04-09T02:34:43.742Z,19.40
2024-04-09T02:39:51.690Z,19.35
2024-04-09T02:44:56.910Z,19.33
2024-04-09T02:50:03.192Z,19.28
2024-04-09T02:55:11.194Z,19.26
2024-04-09T03:00:21.560Z,19.21
2024-04-09T03:05:32.605Z,19.24
2024-04-09T03:10:40.670Z,19.21
2024-04-09T03:15:45.964Z,19.17
2024-04-09T03:20:51.108Z,19.15
2024-04-09T03:25:58.894Z,19.16
2024-04-09T03:31:05.723Z,19.16
2024-04-09T03:36:12.111Z,19.12
2024-04-09T03:41:19.957Z,19.18
2024-04-09T03:46:24.943Z,19.18
2024-04-09T03:51:30.156Z,19.23
2024-04-09T03:56:38.690Z,19.24
2024-04-09T04:01:43.957Z,19.27
2024-04-09T04:06:49.165Z,19.29
2024-04-09T04:11:56.995Z,19.29
2024-04-09T04:17:02.339Z,19.28
2024-04-09T04:22:09.087Z,19.30
2024-04-09T04:27:16.835Z,19.33
2024-04-09T04:32:22.539Z,19.35
2024-04-09T04:37:27.931Z,19.34
2024-04-09T04:42:35.867Z,19.36
2024-04-09T04:47:41.331Z,19.40
2024-04-09T04:52:47.390Z,19.41
2024-04-09T04:57:55.065Z,19.43
2024-04-09T05:03:01.332Z,19.46
2024-04-09T05:08:06.894Z,19.51
2024-04-09T05:13:18.854Z,19.62
2024-04-09T05:18:23.820Z,19.73
2024-04-09T05:23:29.459Z,19.85
2024-04-09T05:28:37.073Z,19.97
2024-04-09T05:33:43.033Z,20.13
2024-04-09T05:38:48.720Z,20.40
2024-04-09T05:43:56.741Z,20.62
2024-04-09T05:49:02.200Z,20.71
2024-04-09T05:54:07.927Z,20.89
2024-04-09T05:59:15.709Z,21.08
2024-04-09T06:04:21.412Z,21.30
2024-04-09T06:09:26.732Z,21.57
2024-04-09T06:14:34.431Z,21.88
2024-04-09T06:19:39.548Z,22.29
2024-04-09T06:24:45.262Z,23.10
2024-04-09T06:29:52.927Z,23.96
2024-04-09T06:34:58.336Z,24.21
2024-04-09T06:40:05.923Z,25.11
2024-04-09T06:45:14.389Z,25.89
2024-04-09T06:50:19.699Z,26.41
2024-04-09T06:55:27.276Z,27.13
2024-04-09T07:00:35.078Z,27.82
2024-04-09T07:05:40.768Z,28.44
2024-04-09T07:10:46.660Z,28.36
2024-04-09T07:15:54.566Z,29.02
2024-04-09T07:21:10.130Z,29.52
2024-04-09T07:26:16.659Z,29.82
2024-04-09T07:31:25.015Z,29.33
2024-04-09T07:36:30.196Z,29.99
2024-04-09T07:41:35.585Z,30.71
2024-04-09T07:46:47.039Z,31.20
2024-04-09T07:51:52.221Z,31.07
2024-04-09T07:56:57.384Z,31.18
2024-04-09T08:02:07.050Z,31.24
2024-04-09T08:07:12.354Z,31.37
2024-04-09T08:12:17.532Z,31.77
2024-04-09T08:17:25.326Z,31.50
2024-04-09T08:22:31.038Z,31.32
2024-04-09T08:27:38.411Z,30.90
2024-04-09T08:32:47.409Z,30.45
2024-04-09T08:37:52.644Z,30.35
2024-04-09T08:43:03.654Z,30.51
2024-04-09T08:48:14.597Z,30.10
2024-04-09T08:53:21.555Z,30.11
2024-04-09T08:58:27.377Z,29.85
2024-04-09T09:03:35.347Z,29.87
2024-04-09T09:08:44.657Z,29.60
2024-04-09T09:13:49.552Z,29.52
2024-04-09T09:19:07.015Z,29.58
2024-04-09T09:24:12.482Z,29.73
2024-04-09T09:29:17.733Z,29.56
2024-04-09T09:34:35.164Z,29.60
2024-04-09T09:39:41.860Z,29.62
2024-04-09T09:44:47.624Z,29.64
2024-04-09T09:50:02.526Z,29.79
2024-04-09T09:55:16.406Z,29.99
2024-04-09T10:00:22.167Z,30.03
2024-04-09T10:05:35.816Z,29.92
2024-04-09T10:10:42.908Z,29.95
2024-04-09T10:15:50.040Z,29.85
2024-04-09T10:20:59.328Z,29.52
2024-04-09T10:26:06.928Z,29.41
2024-04-09T10:31:14.910Z,29.31
2024-04-09T10:36:23.891Z,29.37
2024-04-09T10:41:29.500Z,29.19
2024-04-09T10:46:34.669Z,29.02
2024-04-09T10:51:42.506Z,29.10
2024-04-09T10:56:47.697Z,28.91
2024-04-09T11:01:54.043Z,28.77
2024-04-09T11:07:02.619Z,28.74
2024-04-09T11:12:09.299Z,28.66
2024-04-09T11:17:20.285Z,28.59
2024-04-09T11:22:28.560Z,28.47
2024-04-09T11:27:33.830Z,28.46
2024-04-09T11:32:40.434Z,28.43
2024-04-09T11:37:54.902Z,28.38
2024-04-09T11:43:01.650Z,28.38
2024-04-09T11:48:07.830Z,28.46
2024-04-09T11:53:20.449Z,28.51
2024-04-09T11:58:27.992Z,28.49
2024-04-09T12:03:34.480Z,28.40
2024-04-09T12:08:42.482Z,28.44
2024-04-09T12:13:47.466Z,28.41
2024-04-09T12:18:53.544Z,28.32
2024-04-09T12:24:01.368Z,28.21
2024-04-09T12:29:06.530Z,28.22
2024-04-09T12:34:12.102Z,28.23
2024-04-09T12:39:20.095Z,28.05
2024-04-09T12:44:25.285Z,27.86
2024-04-09T12:49:38.834Z,27.57
2024-04-09T12:54:52.430Z,27.36
2024-04-09T13:00:13.328Z,27.26
2024-04-09T13:05:22.662Z,27.16
2024-04-09T13:10:30.726Z,26.93
2024-04-09T13:20:44.232Z,26.42
2024-04-09T13:25:52.397Z,26.24
2024-04-09T13:30:57.505Z,26.10
2024-04-09T13:36:02.475Z,26.06
2024-04-09T13:41:10.659Z,25.92
2024-04-09T13:46:17.379Z,25.81
2024-04-09T13:51:22.825Z,25.53
2024-04-09T13:56:30.811Z,25.41
2024-04-09T14:01:36.353Z,25.34
2024-04-09T14:06:41.724Z,25.21
2024-04-09T14:11:49.578Z,25.02
2024-04-09T14:16:54.911Z,24.96
2024-04-09T14:22:00.646Z,24.77
2024-04-09T14:27:08.853Z,24.64
2024-04-09T14:32:14.240Z,24.65
2024-04-09T14:37:19.640Z,24.54
2024-04-09T14:42:27.409Z,24.39
2024-04-09T14:47:32.688Z,24.26
2024-04-09T14:52:38.452Z,23.90
2024-04-09T14:57:46.527Z,23.36
2024-04-09T15:02:51.585Z,23.00
2024-04-09T15:07:56.908Z,22.80
2024-04-09T15:13:04.619Z,22.61
2024-04-09T15:18:10.381Z,22.41
2024-04-09T15:23:15.696Z,22.21
2024-04-09T15:28:23.792Z,22.05
2024-04-09T15:33:29.020Z,21.75
2024-04-09T15:38:34.882Z,21.50
2024-04-09T15:43:42.923Z,21.24
2024-04-09T15:48:48.742Z,20.95
2024-04-09T15:53:54.329Z,20.66
2024-04-09T15:59:04.398Z,20.54
2024-04-09T16:04:09.879Z,20.34
2024-04-09T16:09:17.449Z,20.08
2024-04-09T16:14:25.658Z,19.86
2024-04-09T16:19:31.025Z,19.59
2024-04-09T16:24:36.434Z,19.33
2024-04-09T16:29:45.543Z,19.26
2024-04-09T16:34:51.373Z,19.12
2024-04-09T16:39:56.432Z,19.02
2024-04-09T16:45:05.861Z,18.80
2024-04-09T16:50:13.504Z,18.73
2024-04-09T16:55:18.827Z,18.68
2024-04-09T17:00:26.518Z,18.53
2024-04-09T17:05:32.767Z,18.34
2024-04-09T17:10:38.492Z,18.17
2024-04-09T17:15:48.160Z,18.03
2024-04-09T17:20:53.941Z,17.80
2024-04-09T17:26:05.521Z,17.60
2024-04-09T17:31:13.894Z,17.42
2024-04-09T17:36:19.427Z,17.17
2024-04-09T17:41:25.660Z,16.81
2024-04-09T17:46:33.344Z,16.55
2024-04-09T17:51:39.626Z,16.29
2024-04-09T17:56:45.168Z,16.13
2024-04-09T18:01:53.004Z,16.01
2024-04-09T18:06:58.990Z,15.84
2024-04-09T18:12:06.250Z,15.67
2024-04-09T18:17:20.464Z,15.56
2024-04-09T18:22:27.087Z,15.47
2024-04-09T18:27:32.752Z,15.39
2024-04-09T18:32:50.220Z,15.24
2024-04-09T18:37:59.247Z,15.12
2024-04-09T18:43:04.575Z,15.04
2024-04-09T18:48:13.262Z,15.01
2024-04-09T18:53:19.203Z,14.89
2024-04-09T18:58:27.923Z,14.78
2024-04-09T19:03:35.872Z,14.69
2024-04-09T19:08:41.892Z,14.52
2024-04-09T19:13:48.646Z,14.42
2024-04-09T19:18:56.981Z,14.36
2024-04-09T19:24:01.899Z,14.28
2024-04-09T19:29:07.837Z,14.26
2024-04-09T19:34:17.214Z,14.16
2024-04-09T19:39:23.202Z,14.09
2024-04-09T19:44:28.277Z,14.04
2024-04-09T19:49:36.372Z,13.81
2024-04-09T19:54:41.693Z,13.74
2024-04-09T19:59:51.165Z,13.67
2024-04-09T20:04:59.264Z,13.66
2024-04-09T20:10:04.699Z,13.66
2024-04-09T20:15:10.532Z,13.63
2024-04-09T20:20:18.427Z,13.62
2024-04-09T20:25:23.496Z,13.58
2024-04-09T20:30:28.912Z,13.52
2024-04-09T20:35:42.946Z,13.50
2024-04-09T20:40:58.920Z,13.44
2024-04-09T20:46:04.519Z,13.40
2024-04-09T20:51:12.303Z,13.35
2024-04-09T20:56:17.646Z,13.25
2024-04-09T21:01:23.307Z,13.25
2024-04-09T21:06:30.952Z,13.26
2024-04-09T21:11:36.736Z,13.23
2024-04-09T21:16:41.980Z,13.18
2024-04-09T21:21:50.019Z,13.17
2024-04-09T21:26:55.547Z,13.16
2024-04-09T21:32:01.189Z,13.09
2024-04-09T21:37:09.025Z,13.03
2024-04-09T21:42:19.362Z,13.04
2024-04-09T21:47:24.597Z,13.04
2024-04-09T21:52:32.498Z,13.08
2024-04-09T21:57:37.572Z,13.01
2024-04-09T22:02:42.880Z,13.00
2024-04-09T22:07:54.549Z,12.98
2024-04-09T22:13:02.189Z,12.95
2024-04-09T22:18:08.758Z,12.93
2024-04-09T22:23:18.366Z,12.96
2024-04-09T22:28:23.464Z,12.88
2024-04-09T22:33:28.588Z,12.86
2024-04-09T22:38:36.565Z,12.80
2024-04-09T22:43:42.130Z,12.69
2024-04-09T22:48:48.664Z,12.66
2024-04-09T22:53:58.899Z,12.66
2024-04-09T22:59:04.068Z,12.63
2024-04-09T23:04:09.532Z,12.54
2024-04-09T23:09:20.803Z,12.52
2024-04-09T23:14:26.173Z,12.50
2024-04-09T23:19:31.488Z,12.51
2024-04-09T23:24:39.650Z,12.54
2024-04-09T23:29:44.753Z,12.55
2024-04-09T23:34:49.838Z,12.58
2024-04-09T23:39:57.471Z,12.62
2024-04-09T23:45:02.534Z,12.66
2024-04-09T23:50:08.368Z,12.67
2024-04-09T23:55:16.197Z,12.61
